Terminal Aerodrome Forecast
Issued by NWS

Home | Current Version | Previous Version | Text Only | Print | Product List | Glossary On
Versions: 1 2 3 4 5 6 7 8 9 10 11 12 13 14
000
FTUS45 KREV 211100
TAFCXP
TAF
KCXP 211120Z 2112/2212 VRB04KT P6SM SCT180
     FM211800 21008KT P6SM SCT180
     FM212100 24018G30KT P6SM SCT100 BKN150
     FM220400 23010G18KT P6SM BKN090 OVC180
     FM221000 27012G22KT P6SM VCSH SCT050 BKN080=

USA.gov is the U.S. government's official web portal to all federal, state and local government web resources and services.